Aeroporto :
LOGIN :

Iscrizione | Disclaimer

   EN    FR    IT 

 










Sommario :    VFR   VFR Marginale   IFR   IFR Intensivo   IFR Molto Intensivo
Visibilità : 
Base nubi : 
>= 8 km
>= 3000ft
5 / 8 km
1000 / 3000 ft
1500m / 5 km
500 / 1000 ft
800 / 1500m
200 / 500 ft
< 800m
< 200 ft
Simboli :   Temporali  Nebbia  Neve Forte  Precipitazioni Forti  Vento > 20 kt
SIGMETs :   Varie  Temporali  Ghiacco  Turbolenza  Onda orograficha  Ceneri Vulcaniche







- Altitudine del aeroporto : 1234 ft
- Codice IATA : LUX


ELLX - Luxembourg Findel

ULTIMO METAR :
  • 220950Z 14008KT CAVOK 20/09 Q1011 NOSIG

METARs OBSOLETI :
  • 220920Z 13008KT 100V160 CAVOK 19/09 Q1011 NOSIG
  • 220850Z 14008KT 110V170 CAVOK 18/08 Q1011 NOSIG
  • 220820Z 14007KT CAVOK 16/07 Q1012 NOSIG
  • 220750Z 11004KT 080V140 CAVOK 15/07 Q1012 NOSIG
  • 220720Z 09005KT 070V130 CAVOK 15/06 Q1012 NOSIG

TAF TAF ELLX
Valido dal 22 a 06 ore il 23 a 12 ore UTC


220500Z 2206/2312 07006KT CAVOK
BECMG 2209/2211 17010KT
TEMPO 2215/2221 17015G25KT 3000 SHRA TSRA BKN012 SCT020CB
BECMG 2221/2223 23010KT 9999 BKN015
TEMPO 2221/2306 2000 RA OVC010
BECMG 2310/2312 SCT030
ATIS : +352 4798 27300
Met : +352 4798 27010 / 27050
Nessun NOTAM noto per questo aeroporto.



MetMap, La meteo Aeronautica in un colpo d'occhio ! - Copyright ORBIFLY Dicembre 2007 - Disclaimer

ORBIFLY MET'MAP TEAM :

Programmazione e sviluppo : Alexandra Zaïnal
Concezione e sviluppo : Baudouin d'Aumeries
Co-Programmazione e sviluppo : Marc-Olivier Méhu
Supporto tecnico e logistico : Manuel Goepfert
Aiuto per la traduzione : Arnaldo La Scala

Contatto : metmap@orbifly.com




FONTI E CREDITI :

   NOAA